Time;durP1;ratioP1;P1;durP2;ratioP2;P2;SDS_P1;SDS_P2;PMS_P1;PMS_P2;Temp;Humidity;BMP_temperature;BMP_pressure;BME280_temperature;BME280_humidity;BME280_pressure;Samples;Min_cycle;Max_cycle;Signal;HPM_P1;HPM_P2
2022/01/20 00:00:45;;;;;;;23.73;4.93;;;;;;;;;;5019688;28;20136;-67
2022/01/20 00:03:16;;;;;;;29.02;5.15;;;3.30;99.90;;;;;;5011695;28;20022;-67
2022/01/20 00:27:10;;;;;;;30.83;5.83;;;3.40;99.90;;;;;;5008566;28;20095;-67
2022/01/20 00:32:26;;;;;;;20.33;4.22;;;3.50;99.90;;;;;;5027527;28;20033;-67
2022/01/20 00:37:26;;;;;;;25.67;5.60;;;4.10;99.90;;;;;;5011805;28;20030;-67
2022/01/20 00:39:52;;;;;;;31.17;7.07;;;3.60;99.90;;;;;;5008442;28;20030;-67
2022/01/20 00:42:17;;;;;;;18.33;3.80;;;3.70;99.90;;;;;;5010462;28;20427;-67
2022/01/20 00:44:44;;;;;;;16.83;3.67;;;3.70;99.90;;;;;;5008763;28;20072;-67
2022/01/20 00:47:10;;;;;;;26.93;4.40;;;3.70;99.90;;;;;;5009177;28;20137;-67
2022/01/20 00:49:36;;;;;;;24.83;4.97;;;3.70;99.90;;;;;;5013638;28;20103;-67
2022/01/20 00:52:03;;;;;;;26.83;6.17;;;3.90;99.90;;;;;;5014444;28;20034;-67
2022/01/20 00:54:29;;;;;;;22.10;5.30;;;;;;;;;;5015284;28;20744;-67
2022/01/20 00:56:55;;;;;;;21.40;3.10;;;;;;;;;;5021005;28;20029;-67
2022/01/20 00:59:21;;;;;;;15.43;4.60;;;3.70;99.90;;;;;;5015370;28;20030;-67
2022/01/20 01:01:46;;;;;;;22.83;4.30;;;3.80;99.90;;;;;;5008166;28;20049;-67
2022/01/20 01:04:12;;;;;;;22.40;5.63;;;3.60;99.90;;;;;;5014590;28;20104;-67
2022/01/20 01:09:09;;;;;;;27.70;5.67;;;3.70;99.90;;;;;;5017028;28;20041;-67
2022/01/20 01:11:36;;;;;;;26.83;5.93;;;3.50;99.90;;;;;;5015427;28;20391;-66
2022/01/20 01:14:03;;;;;;;28.90;4.27;;;3.90;99.90;;;;;;5020264;28;20037;-67
2022/01/20 01:24:42;;;;;;;24.03;3.57;;;3.90;99.90;;;;;;5032535;28;20034;-66
2022/01/20 01:27:09;;;;;;;23.90;3.17;;;4.10;99.90;;;;;;5017300;28;20042;-66
2022/01/20 01:29:58;;;;;;;14.90;2.30;;;4.10;99.90;;;;;;5015811;28;20065;-66
2022/01/20 01:32:27;;;;;;;17.83;3.00;;;;;;;;;;5015214;28;20097;-66
2022/01/20 01:34:54;;;;;;;23.83;2.77;;;3.90;99.90;;;;;;5019394;28;20022;-66
2022/01/20 01:39:57;;;;;;;16.53;2.30;;;4.00;99.90;;;;;;5015352;28;20029;-66
2022/01/20 01:42:25;;;;;;;24.20;3.40;;;4.00;99.90;;;;;;5015846;28;20105;-66
2022/01/20 01:44:52;;;;;;;21.67;3.70;;;4.10;99.90;;;;;;5017528;28;20449;-66
2022/01/20 01:47:18;;;;;;;17.67;3.43;;;4.30;99.90;;;;;;5014385;28;20030;-66
2022/01/20 01:49:44;;;;;;;23.50;3.10;;;;;;;;;;5016434;28;20037;-66
2022/01/20 01:52:09;;;;;;;23.90;3.63;;;;;;;;;;5015382;28;20497;-67
2022/01/20 01:54:35;;;;;;;17.60;2.53;;;4.10;99.90;;;;;;5032498;28;20040;-67
2022/01/20 01:57:05;;;;;;;15.50;2.00;;;;;;;;;;5014012;28;20033;-67
2022/01/20 01:59:32;;;;;;;16.03;2.60;;;;;;;;;;5025724;28;20048;-67
2022/01/20 02:01:57;;;;;;;16.57;2.70;;;4.30;99.90;;;;;;5015115;28;20025;-67
2022/01/20 02:04:23;;;;;;;11.13;2.77;;;;;;;;;;5030175;28;20037;-67
2022/01/20 02:09:29;;;;;;;12.90;2.43;;;4.50;99.90;;;;;;5017720;28;20061;-67
2022/01/20 02:20:13;;;;;;;18.85;2.85;;;4.60;99.90;;;;;;5023094;28;20241;-67
2022/01/20 02:22:39;;;;;;;17.23;2.73;;;4.60;99.90;;;;;;4992704;28;20126;-67
2022/01/20 02:25:05;;;;;;;17.67;3.03;;;4.70;99.90;;;;;;5015729;28;20104;-67
2022/01/20 02:27:31;;;;;;;17.30;2.33;;;4.50;99.90;;;;;;5012225;28;20029;-67
2022/01/20 02:29:56;;;;;;;15.87;2.80;;;4.50;99.90;;;;;;5016440;28;20112;-67
2022/01/20 02:32:22;;;;;;;13.23;2.23;;;;;;;;;;5010375;28;20049;-67
2022/01/20 02:34:49;;;;;;;11.83;2.40;;;;;;;;;;5015329;28;20402;-67
2022/01/20 02:37:16;;;;;;;17.03;2.57;;;4.20;99.90;;;;;;5015996;28;20026;-67
2022/01/20 02:40:03;;;;;;;12.27;2.00;;;4.50;99.90;;;;;;5016491;28;20030;-67
2022/01/20 02:45:13;;;;;;;16.75;2.58;;;4.50;99.90;;;;;;5012320;28;20029;-66
2022/01/20 02:47:39;;;;;;;17.30;2.53;;;;;;;;;;5011985;28;20069;-67
2022/01/20 02:50:05;;;;;;;14.70;2.40;;;4.50;99.90;;;;;;4995755;28;20065;-67
2022/01/20 02:52:31;;;;;;;17.63;2.63;;;;;;;;;;5009829;28;20034;-66
2022/01/20 02:54:57;;;;;;;11.87;1.87;;;4.40;99.90;;;;;;5013622;28;20030;-67
2022/01/20 02:57:24;;;;;;;16.37;3.10;;;4.20;99.90;;;;;;5016222;28;20021;-67
2022/01/20 02:59:49;;;;;;;10.53;2.37;;;;;;;;;;5013361;28;20072;-67
2022/01/20 03:02:15;;;;;;;27.60;3.07;;;4.40;99.90;;;;;;5011230;28;20061;-67
2022/01/20 03:04:41;;;;;;;18.60;2.03;;;4.20;99.90;;;;;;5009611;28;20046;-67
2022/01/20 03:07:06;;;;;;;8.43;1.83;;;4.30;99.90;;;;;;5009777;28;20026;-67
2022/01/20 03:09:32;;;;;;;14.40;1.93;;;4.40;99.90;;;;;;5011159;28;20080;-67
2022/01/20 03:11:58;;;;;;;15.00;2.33;;;;;;;;;;5009301;28;20137;-67
2022/01/20 03:14:24;;;;;;;25.73;3.80;;;4.40;99.90;;;;;;5016195;28;20097;-67
2022/01/20 03:16:50;;;;;;;14.57;2.30;;;;;;;;;;4994123;28;20052;-67
2022/01/20 03:19:16;;;;;;;13.07;2.03;;;4.30;99.90;;;;;;5013778;28;20046;-67
2022/01/20 03:21:43;;;;;;;14.63;3.07;;;4.70;99.90;;;;;;5008644;28;20065;-67
2022/01/20 03:24:10;;;;;;;14.00;2.43;;;4.80;99.90;;;;;;5011988;28;20026;-67
2022/01/20 03:26:36;;;;;;;13.23;1.80;;;4.70;99.90;;;;;;5013245;28;20401;-67
2022/01/20 03:29:04;;;;;;;11.83;2.33;;;4.60;99.90;;;;;;5002142;28;20060;-67
2022/01/20 03:31:31;;;;;;;11.77;1.93;;;4.60;99.90;;;;;;5014348;28;20116;-67
2022/01/20 03:33:57;;;;;;;9.03;1.60;;;4.70;99.90;;;;;;5020078;28;20029;-67
2022/01/20 03:36:23;;;;;;;16.90;2.10;;;;;;;;;;5008862;28;20095;-67
2022/01/20 03:38:49;;;;;;;8.37;2.47;;;;;;;;;;5011931;28;20018;-67
2022/01/20 03:41:15;;;;;;;13.17;2.57;;;;;;;;;;5008658;28;20029;-67
2022/01/20 03:43:41;;;;;;;18.27;2.23;;;4.70;99.90;;;;;;5014187;28;20368;-67
2022/01/20 03:46:12;;;;;;;8.20;2.10;;;4.70;99.90;;;;;;5009237;28;20363;-67
2022/01/20 03:48:48;;;;;;;13.33;1.53;;;;;;;;;;5014530;28;20208;-67
2022/01/20 03:51:14;;;;;;;11.73;2.07;;;4.50;99.90;;;;;;5013409;28;20026;-67
2022/01/20 03:53:40;;;;;;;16.33;1.93;;;4.20;99.90;;;;;;5008565;28;20444;-67
2022/01/20 03:56:06;;;;;;;10.00;1.77;;;4.40;99.90;;;;;;5021453;28;20033;-67
2022/01/20 03:58:32;;;;;;;9.53;1.80;;;4.40;99.90;;;;;;5022955;28;20075;-67
2022/01/20 04:00:57;;;;;;;11.17;1.70;;;4.60;99.90;;;;;;5008999;28;20487;-67
2022/01/20 04:03:24;;;;;;;11.57;1.93;;;4.30;99.90;;;;;;5010166;28;20487;-67
2022/01/20 04:06:00;;;;;;;14.80;2.23;;;4.50;99.90;;;;;;5008330;28;20191;-67
2022/01/20 04:08:32;;;;;;;9.90;1.33;;;4.50;99.90;;;;;;5020100;28;20532;-67
2022/01/20 04:10:59;;;;;;;12.73;2.10;;;4.50;99.90;;;;;;5018786;28;20370;-67
2022/01/20 04:13:30;;;;;;;10.20;2.00;;;4.40;99.90;;;;;;5015504;28;20410;-67
2022/01/20 04:15:59;;;;;;;12.67;2.10;;;4.60;99.90;;;;;;4996838;28;20081;-67
2022/01/20 04:18:26;;;;;;;9.03;1.50;;;4.40;99.90;;;;;;5015872;28;20519;-67
2022/01/20 04:20:52;;;;;;;16.90;2.63;;;4.60;99.90;;;;;;5017364;28;20013;-67
2022/01/20 04:23:18;;;;;;;17.27;2.23;;;;;;;;;;5008795;28;20038;-67
2022/01/20 04:25:44;;;;;;;8.90;1.50;;;4.50;99.90;;;;;;5013245;28;20033;-67
2022/01/20 04:28:10;;;;;;;13.00;1.80;;;4.60;99.90;;;;;;5007700;28;20396;-67
2022/01/20 04:30:35;;;;;;;13.83;2.67;;;4.20;99.90;;;;;;5008300;28;20030;-67
2022/01/20 04:33:01;;;;;;;14.33;1.30;;;4.60;99.90;;;;;;5013532;28;20037;-67
2022/01/20 04:35:27;;;;;;;18.73;2.47;;;;;;;;;;5008080;28;20463;-67
2022/01/20 04:37:54;;;;;;;9.27;1.37;;;4.70;99.90;;;;;;5016632;28;20530;-67
2022/01/20 04:40:21;;;;;;;7.00;1.00;;;4.60;99.90;;;;;;5027543;28;20025;-67
2022/01/20 04:42:48;;;;;;;12.13;1.40;;;;;;;;;;5026170;28;20033;-67
2022/01/20 04:45:22;;;;;;;12.20;1.53;;;;;;;;;;5027013;28;20432;-67
2022/01/20 04:47:57;;;;;;;13.70;1.48;;;;;;;;;;5013145;28;20026;-67
2022/01/20 04:58:35;;;;;;;8.80;0.98;;;4.50;99.90;;;;;;5007586;28;20227;-67
2022/01/20 05:01:03;;;;;;;9.27;1.50;;;;;;;;;;5007206;28;20022;-66
2022/01/20 05:03:28;;;;;;;8.33;1.60;;;4.50;99.90;;;;;;5007555;28;20439;-66
2022/01/20 05:05:55;;;;;;;5.47;1.00;;;4.70;99.90;;;;;;5008054;28;20053;-67
2022/01/20 05:08:23;;;;;;;11.57;1.40;;;4.60;99.90;;;;;;5008004;28;20033;-67
2022/01/20 05:10:50;;;;;;;6.80;1.23;;;4.60;99.90;;;;;;5007363;28;20042;-67
2022/01/20 05:13:32;;;;;;;6.70;1.30;;;4.70;99.90;;;;;;5012831;28;20145;-67
2022/01/20 05:15:58;;;;;;;9.03;1.47;;;4.60;99.90;;;;;;5007376;28;20490;-67
2022/01/20 05:18:23;;;;;;;8.90;1.20;;;4.50;99.90;;;;;;5007598;28;20057;-67
2022/01/20 05:20:49;;;;;;;17.30;1.93;;;4.50;99.90;;;;;;5007441;28;20026;-67
2022/01/20 05:23:15;;;;;;;15.07;2.40;;;4.40;99.90;;;;;;5008123;28;20331;-67
2022/01/20 05:25:40;;;;;;;14.73;2.10;;;;;;;;;;5006969;28;20022;-67
2022/01/20 05:28:09;;;;;;;12.37;2.20;;;4.50;99.90;;;;;;5007756;28;20165;-67
2022/01/20 05:30:35;;;;;;;13.23;1.50;;;4.70;99.90;;;;;;5006609;28;20034;-67
2022/01/20 05:33:01;;;;;;;12.97;2.00;;;;;;;;;;4992283;28;20030;-67
2022/01/20 05:35:28;;;;;;;8.50;1.73;;;4.50;99.90;;;;;;5009201;28;20033;-67
2022/01/20 05:37:53;;;;;;;12.83;2.23;;;4.50;99.90;;;;;;5007599;28;20096;-67
2022/01/20 05:40:19;;;;;;;10.20;1.67;;;4.50;99.90;;;;;;5009899;28;20137;-67
2022/01/20 05:42:45;;;;;;;20.70;2.57;;;4.50;99.90;;;;;;5010858;28;20030;-67
2022/01/20 05:45:12;;;;;;;18.33;2.43;;;;;;;;;;5010906;28;20127;-67
2022/01/20 05:47:44;;;;;;;13.73;2.53;;;4.60;99.90;;;;;;5010846;28;20030;-67
2022/01/20 05:50:15;;;;;;;14.67;1.90;;;4.30;99.90;;;;;;5011206;28;20034;-67
2022/01/20 05:52:42;;;;;;;22.17;2.87;;;4.30;99.90;;;;;;5010813;28;20054;-67
2022/01/20 05:55:15;;;;;;;13.90;3.10;;;4.30;99.90;;;;;;5011111;28;20041;-67
2022/01/20 05:57:41;;;;;;;14.93;3.33;;;;;;;;;;5012158;28;20054;-67
2022/01/20 06:00:11;;;;;;;13.63;2.20;;;4.40;99.90;;;;;;5011321;28;20030;-67
2022/01/20 06:03:36;;;;;;;18.30;2.77;;;;;;;;;;5010457;28;20041;-67
2022/01/20 06:05:23;;;;;;;11.53;2.33;;;;;;;;;;5010454;28;20038;-67
2022/01/20 06:07:48;;;;;;;16.10;3.23;;;4.80;99.90;;;;;;5010536;28;20117;-67
2022/01/20 06:10:14;;;;;;;15.03;2.97;;;4.40;99.90;;;;;;5010673;28;20136;-67
2022/01/20 06:12:40;;;;;;;15.80;2.70;;;;;;;;;;5015078;28;20057;-67
2022/01/20 06:15:06;;;;;;;20.70;4.40;;;4.40;99.90;;;;;;5010678;28;20038;-67
2022/01/20 06:17:34;;;;;;;18.70;2.60;;;4.60;99.90;;;;;;5010245;28;20068;-67
2022/01/20 06:20:00;;;;;;;16.83;3.03;;;4.40;99.90;;;;;;5010673;28;20030;-67
2022/01/20 06:22:26;;;;;;;13.53;2.13;;;4.40;99.90;;;;;;5010511;28;20024;-67
2022/01/20 06:24:51;;;;;;;17.63;1.87;;;4.30;99.90;;;;;;5010191;28;20037;-66
2022/01/20 06:27:17;;;;;;;16.50;2.63;;;;;;;;;;5013421;28;20029;-67
2022/01/20 06:29:43;;;;;;;13.83;1.83;;;;;;;;;;5009535;28;20118;-67
2022/01/20 06:32:09;;;;;;;29.37;3.40;;;4.40;99.90;;;;;;5010559;28;20394;-67
2022/01/20 06:34:35;;;;;;;16.67;2.77;;;4.40;99.90;;;;;;4992291;28;20383;-66
2022/01/20 06:37:00;;;;;;;15.83;1.80;;;4.40;99.90;;;;;;5010259;28;20220;-66
2022/01/20 06:39:26;;;;;;;18.97;1.93;;;4.40;99.90;;;;;;5009798;28;20115;-66
2022/01/20 06:41:51;;;;;;;9.53;2.10;;;4.50;99.90;;;;;;5023770;28;20041;-67
2022/01/20 06:44:18;;;;;;;9.10;1.47;;;4.40;99.90;;;;;;5029321;28;20053;-67
2022/01/20 06:46:45;;;;;;;17.17;3.03;;;;;;;;;;5028735;28;20501;-67
2022/01/20 06:49:11;;;;;;;9.80;1.73;;;4.00;99.90;;;;;;5028447;28;20026;-67
2022/01/20 06:51:37;;;;;;;11.13;1.40;;;4.40;99.90;;;;;;5009206;28;20502;-66
2022/01/20 06:54:04;;;;;;;12.30;1.47;;;4.30;99.90;;;;;;5009479;28;20358;-67
2022/01/20 06:56:31;;;;;;;10.10;1.67;;;;;;;;;;5009116;28;20782;-67
2022/01/20 06:58:57;;;;;;;13.07;1.03;;;;;;;;;;5009835;28;20080;-67
2022/01/20 07:01:22;;;;;;;8.77;1.70;;;;;;;;;;5011974;28;20025;-68
2022/01/20 07:03:48;;;;;;;10.77;1.20;;;3.80;99.90;;;;;;5009406;28;20391;-67
2022/01/20 07:06:13;;;;;;;8.77;1.63;;;4.20;99.90;;;;;;5009893;28;20097;-67
2022/01/20 07:08:39;;;;;;;8.77;1.40;;;4.20;99.90;;;;;;5017748;28;20030;-67
2022/01/20 07:11:05;;;;;;;11.00;1.20;;;;;;;;;;5028153;28;20060;-67
2022/01/20 07:13:31;;;;;;;8.50;1.17;;;4.00;99.90;;;;;;5028039;28;20056;-67
2022/01/20 07:15:56;;;;;;;15.80;2.00;;;3.90;99.90;;;;;;5028245;28;20025;-68
2022/01/20 07:18:22;;;;;;;8.60;0.97;;;;;;;;;;5028273;28;20390;-68
2022/01/20 07:20:48;;;;;;;14.60;1.63;;;4.10;99.90;;;;;;5011043;28;20114;-68
2022/01/20 07:23:14;;;;;;;10.70;1.87;;;;;;;;;;5009476;28;20018;-68
2022/01/20 07:25:40;;;;;;;5.70;1.13;;;;;;;;;;4990944;28;20018;-68
2022/01/20 07:28:05;;;;;;;7.30;1.27;;;3.60;99.90;;;;;;4991489;28;20083;-68
2022/01/20 07:30:31;;;;;;;11.53;1.60;;;3.60;99.90;;;;;;5008791;28;20163;-68
2022/01/20 07:32:58;;;;;;;10.07;1.30;;;3.40;99.90;;;;;;5009409;28;20030;-68
2022/01/20 07:35:24;;;;;;;7.80;1.10;;;;;;;;;;5009042;28;20104;-68
2022/01/20 07:37:49;;;;;;;7.70;0.90;;;3.30;99.90;;;;;;5008589;28;20108;-68
2022/01/20 07:40:15;;;;;;;10.07;0.93;;;3.30;99.90;;;;;;4992426;28;20029;-68
2022/01/20 07:42:41;;;;;;;8.50;1.13;;;;;;;;;;5008726;28;20174;-68
2022/01/20 07:45:07;;;;;;;8.73;1.60;;;3.40;99.90;;;;;;4991285;28;20066;-68
2022/01/20 07:47:32;;;;;;;9.90;1.07;;;3.30;99.90;;;;;;5008659;28;20033;-68
2022/01/20 07:49:58;;;;;;;10.50;2.07;;;3.40;99.90;;;;;;5008861;28;20048;-68
2022/01/20 07:52:23;;;;;;;8.77;1.57;;;3.60;99.90;;;;;;5008558;28;20026;-67
2022/01/20 07:54:49;;;;;;;5.27;0.93;;;;;;;;;;5008378;28;20037;-68
2022/01/20 07:57:15;;;;;;;7.13;1.50;;;3.50;99.90;;;;;;5014855;28;20188;-68
2022/01/20 07:59:41;;;;;;;9.33;1.37;;;;;;;;;;5008597;28;20101;-68
2022/01/20 08:02:07;;;;;;;6.63;2.40;;;;;;;;;;5011662;28;20021;-67
2022/01/20 08:04:32;;;;;;;12.73;1.70;;;3.70;99.90;;;;;;5026871;28;20025;-67
2022/01/20 08:06:58;;;;;;;11.37;1.13;;;3.60;99.90;;;;;;5008848;28;20034;-68
2022/01/20 08:09:24;;;;;;;10.73;2.37;;;;;;;;;;5007843;28;20057;-67
2022/01/20 08:11:50;;;;;;;6.93;0.93;;;3.70;99.90;;;;;;5012519;28;20052;-68
2022/01/20 08:14:15;;;;;;;9.63;1.83;;;3.80;99.90;;;;;;5008857;28;20038;-68
2022/01/20 08:16:41;;;;;;;5.27;1.70;;;3.70;99.90;;;;;;5007937;28;20111;-68
2022/01/20 08:19:07;;;;;;;12.07;2.17;;;3.70;99.90;;;;;;4991025;28;20083;-68
2022/01/20 08:21:32;;;;;;;13.37;1.90;;;;;;;;;;5007695;28;20329;-68
2022/01/20 08:23:58;;;;;;;12.43;1.80;;;3.80;99.90;;;;;;4990362;28;20030;-68
2022/01/20 08:26:24;;;;;;;10.87;1.13;;;;;;;;;;5007967;28;20115;-68
2022/01/20 08:28:49;;;;;;;8.57;1.10;;;3.80;99.90;;;;;;5008497;28;20080;-67
2022/01/20 08:31:15;;;;;;;13.70;1.37;;;4.60;99.90;;;;;;5008570;28;20053;-68
2022/01/20 08:33:41;;;;;;;11.77;1.80;;;;;;;;;;5007635;28;20096;-68
2022/01/20 08:36:07;;;;;;;8.00;2.57;;;4.00;99.90;;;;;;5007917;28;20125;-68
2022/01/20 08:38:33;;;;;;;4.43;1.17;;;;;;;;;;5012512;28;20033;-68
2022/01/20 08:40:58;;;;;;;6.30;1.30;;;3.90;99.90;;;;;;5018645;28;20123;-68
2022/01/20 08:43:24;;;;;;;14.50;1.97;;;4.10;99.90;;;;;;5008009;28;20033;-68
2022/01/20 08:45:50;;;;;;;8.80;1.20;;;3.90;99.90;;;;;;5016369;28;20034;-68
2022/01/20 08:48:16;;;;;;;13.80;1.33;;;;;;;;;;5026738;28;20037;-67
2022/01/20 08:50:43;;;;;;;10.97;1.30;;;4.10;99.90;;;;;;5011694;28;20054;-68
2022/01/20 08:53:09;;;;;;;5.43;1.40;;;3.80;99.90;;;;;;5012623;28;20053;-67
2022/01/20 08:55:36;;;;;;;9.03;1.57;;;3.80;99.90;;;;;;5012190;28;20490;-68
2022/01/20 08:58:03;;;;;;;8.37;1.63;;;3.90;99.90;;;;;;5017047;28;20088;-68
2022/01/20 09:00:32;;;;;;;12.30;1.70;;;4.80;99.90;;;;;;5012822;28;20057;-68
2022/01/20 09:02:58;;;;;;;11.20;1.43;;;4.10;99.90;;;;;;5007708;28;20019;-67
2022/01/20 09:05:24;;;;;;;14.37;2.80;;;;;;;;;;5007683;28;20454;-67
2022/01/20 09:07:49;;;;;;;11.17;2.63;;;4.10;99.90;;;;;;5007097;28;20033;-67
2022/01/20 09:10:20;;;;;;;6.77;1.43;;;;;;;;;;5012245;28;20037;-67
2022/01/20 09:15:28;;;;;;;9.33;2.10;;;4.30;99.90;;;;;;5014341;28;20029;-67
2022/01/20 09:18:04;;;;;;;17.50;2.47;;;4.10;99.90;;;;;;5011536;28;20030;-66
2022/01/20 09:20:31;;;;;;;11.80;1.90;;;3.90;99.90;;;;;;5011889;28;20048;-66
2022/01/20 09:22:58;;;;;;;8.07;1.67;;;;;;;;;;5017438;28;20030;-66
2022/01/20 09:25:25;;;;;;;12.07;1.70;;;3.40;99.90;;;;;;5011374;28;20453;-66
2022/01/20 09:27:51;;;;;;;8.77;1.37;;;3.30;99.90;;;;;;5015841;28;20481;-66
2022/01/20 09:30:19;;;;;;;15.37;2.50;;;3.40;99.90;;;;;;4993926;28;20490;-67
2022/01/20 09:32:56;;;;;;;10.87;1.43;;;3.30;99.90;;;;;;5010452;28;20021;-67
2022/01/20 09:35:22;;;;;;;7.70;1.70;;;;;;;;;;5010984;28;20032;-67
2022/01/20 09:37:48;;;;;;;8.00;1.40;;;3.30;99.90;;;;;;5011056;28;20040;-67
2022/01/20 09:40:13;;;;;;;13.03;1.67;;;3.90;99.90;;;;;;5026422;28;20029;-67
2022/01/20 09:42:39;;;;;;;7.43;1.20;;;;;;;;;;5013795;28;20351;-67
2022/01/20 09:45:06;;;;;;;9.87;1.17;;;;;;;;;;5011215;28;20034;-67
2022/01/20 09:47:32;;;;;;;11.57;1.50;;;;;;;;;;5010202;28;20096;-67
2022/01/20 09:49:58;;;;;;;9.90;2.53;;;3.30;99.90;;;;;;5010676;28;20037;-67
2022/01/20 09:52:25;;;;;;;7.40;1.43;;;3.10;99.90;;;;;;5013242;28;20033;-67
2022/01/20 09:54:51;;;;;;;10.60;1.30;;;3.30;99.90;;;;;;5013078;28;20112;-66
2022/01/20 09:57:17;;;;;;;14.03;3.77;;;3.20;99.90;;;;;;5019919;28;20112;-67
2022/01/20 09:59:42;;;;;;;9.13;1.87;;;;;;;;;;5013792;28;20438;-67
2022/01/20 10:02:11;;;;;;;8.20;1.60;;;3.60;99.90;;;;;;5026671;28;20036;-66
2022/01/20 10:04:37;;;;;;;20.30;3.80;;;;;;;;;;5028701;28;20040;-67
2022/01/20 10:07:13;;;;;;;9.70;1.60;;;3.50;99.90;;;;;;5026823;28;20107;-67
2022/01/20 10:09:43;;;;;;;9.13;1.33;;;3.40;99.90;;;;;;5016942;28;20133;-67
2022/01/20 10:12:10;;;;;;;12.13;2.07;;;3.60;99.90;;;;;;5015621;28;20116;-67
2022/01/20 10:14:49;;;;;;;17.47;2.50;;;3.50;99.90;;;;;;5013100;28;20379;-67
2022/01/20 10:17:14;;;;;;;16.60;1.80;;;3.70;99.90;;;;;;5010699;28;20068;-67
2022/01/20 10:19:41;;;;;;;11.97;1.90;;;3.60;99.90;;;;;;5009553;28;20026;-67
2022/01/20 10:22:14;;;;;;;14.70;2.77;;;3.70;99.90;;;;;;5010663;28;20036;-67
2022/01/20 10:24:41;;;;;;;14.43;2.00;;;3.90;99.90;;;;;;5012088;28;20439;-67
2022/01/20 10:27:12;;;;;;;8.97;1.97;;;4.10;99.90;;;;;;4992867;28;20030;-67
2022/01/20 10:29:38;;;;;;;15.67;2.60;;;;;;;;;;5011104;28;20056;-67
2022/01/20 10:32:04;;;;;;;14.20;2.30;;;4.20;99.90;;;;;;5014412;28;20545;-67
2022/01/20 10:34:35;;;;;;;12.20;2.10;;;4.30;99.90;;;;;;5010784;28;20030;-67
2022/01/20 10:37:12;;;;;;;14.23;2.33;;;4.50;99.90;;;;;;5010268;28;20110;-67
2022/01/20 10:39:47;;;;;;;13.27;2.10;;;4.50;99.90;;;;;;5022434;28;20025;-67
2022/01/20 10:42:16;;;;;;;8.93;1.87;;;4.50;99.90;;;;;;5010311;28;20045;-66
2022/01/20 10:44:44;;;;;;;13.83;2.40;;;4.40;99.90;;;;;;5009212;28;20452;-67
2022/01/20 10:47:12;;;;;;;12.33;2.10;;;4.50;99.90;;;;;;4999148;28;20029;-67
2022/01/20 10:49:38;;;;;;;20.67;4.23;;;;;;;;;;4991435;28;20046;-67
2022/01/20 10:52:06;;;;;;;13.57;2.87;;;5.00;99.90;;;;;;5016441;28;20029;-68
2022/01/20 10:54:43;;;;;;;20.77;2.83;;;4.40;99.90;;;;;;5026755;28;20112;-68
2022/01/20 10:57:11;;;;;;;18.23;3.23;;;4.80;99.90;;;;;;5004180;28;20021;-69
2022/01/20 10:59:54;;;;;;;18.47;3.03;;;4.70;99.90;;;;;;5022645;28;20036;-68
2022/01/20 11:02:22;;;;;;;20.47;3.67;;;4.70;99.90;;;;;;5023982;28;20034;-68
2022/01/20 11:04:49;;;;;;;16.27;2.40;;;4.50;99.90;;;;;;5012550;28;20199;-68
2022/01/20 11:07:15;;;;;;;12.93;3.27;;;4.80;99.90;;;;;;5028454;28;20017;-68
2022/01/20 11:09:46;;;;;;;10.10;1.93;;;5.30;99.90;;;;;;5027404;28;20030;-68
2022/01/20 11:12:14;;;;;;;12.20;1.67;;;4.70;99.90;;;;;;5024096;28;20124;-69
2022/01/20 11:14:42;;;;;;;11.47;2.03;;;4.60;99.90;;;;;;5025362;28;20072;-69
2022/01/20 11:17:08;;;;;;;12.33;1.83;;;4.80;99.90;;;;;;5009682;28;20033;-68
2022/01/20 11:19:38;;;;;;;11.67;1.33;;;4.90;99.90;;;;;;5027857;28;20080;-68
2022/01/20 11:22:12;;;;;;;12.40;1.73;;;4.70;99.90;;;;;;5028232;28;20084;-68
2022/01/20 11:24:40;;;;;;;9.53;1.00;;;4.80;99.90;;;;;;5027798;28;20021;-69
2022/01/20 11:27:09;;;;;;;7.93;1.43;;;5.00;99.90;;;;;;5028291;28;20112;-68
2022/01/20 11:29:50;;;;;;;16.27;1.60;;;4.80;99.90;;;;;;5027131;28;20038;-69
2022/01/20 11:32:24;;;;;;;11.23;1.03;;;4.60;99.90;;;;;;5020279;28;20049;-68
2022/01/20 11:34:59;;;;;;;16.80;3.10;;;4.90;99.90;;;;;;5013960;28;20041;-68
2022/01/20 11:37:26;;;;;;;9.50;1.13;;;5.00;99.90;;;;;;5008717;28;20022;-69
2022/01/20 11:39:53;;;;;;;13.47;2.73;;;5.30;99.90;;;;;;5009550;28;20079;-68
2022/01/20 11:42:25;;;;;;;10.23;1.10;;;5.30;99.90;;;;;;5028008;28;20049;-68
2022/01/20 11:44:52;;;;;;;8.70;1.00;;;5.70;99.90;;;;;;5027252;28;20064;-68
2022/01/20 11:47:18;;;;;;;7.47;1.60;;;5.70;99.90;;;;;;5027035;28;20033;-69
2022/01/20 11:49:45;;;;;;;11.03;2.03;;;5.60;99.90;;;;;;5026816;28;20068;-69
2022/01/20 11:52:23;;;;;;;8.40;1.47;;;5.60;99.90;;;;;;5012120;28;20037;-69
2022/01/20 11:54:49;;;;;;;7.97;1.43;;;;;;;;;;5008759;28;20484;-69
2022/01/20 11:57:25;;;;;;;12.97;1.70;;;5.40;99.90;;;;;;4991388;28;20034;-68
2022/01/20 11:59:55;;;;;;;7.57;2.07;;;5.50;99.90;;;;;;5008944;28;20014;-68
2022/01/20 12:02:27;;;;;;;5.27;1.30;;;5.60;99.90;;;;;;5008575;28;20037;-68
2022/01/20 12:04:53;;;;;;;8.60;1.53;;;;;;;;;;5017538;28;20022;-68
2022/01/20 12:07:29;;;;;;;4.70;0.60;;;5.20;99.90;;;;;;5021451;28;20040;-68
2022/01/20 12:10:16;;;;;;;11.70;1.47;;;5.40;99.90;;;;;;5008525;28;20034;-68
2022/01/20 12:12:43;;;;;;;9.07;0.87;;;4.30;99.90;;;;;;5017619;28;20332;-68
2022/01/20 12:15:14;;;;;;;5.47;1.10;;;4.90;99.90;;;;;;5026990;28;20112;-68
2022/01/20 12:17:47;;;;;;;5.73;0.90;;;4.40;99.90;;;;;;5009080;28;20041;-68
2022/01/20 12:20:13;;;;;;;7.57;1.20;;;;;;;;;;5025074;28;20033;-68
2022/01/20 12:22:43;;;;;;;8.10;0.90;;;4.10;99.90;;;;;;5007797;28;20107;-68
2022/01/20 12:25:19;;;;;;;5.93;0.80;;;4.00;99.90;;;;;;5013856;28;20046;-69
2022/01/20 12:27:46;;;;;;;10.83;1.50;;;4.10;99.90;;;;;;5011459;28;20454;-68
2022/01/20 12:30:33;;;;;;;6.10;1.10;;;4.20;99.90;;;;;;5009022;28;20069;-67
2022/01/20 12:33:07;;;;;;;12.57;1.10;;;4.50;99.90;;;;;;5022072;28;20025;-68
2022/01/20 12:35:42;;;;;;;15.15;2.15;;;4.60;99.90;;;;;;5023677;28;20024;-68
2022/01/20 12:38:36;;;;;;;8.50;1.53;;;4.80;99.90;;;;;;5008468;28;20200;-68
2022/01/20 12:41:10;;;;;;;10.07;1.37;;;5.10;99.90;;;;;;5009903;28;20392;-69
2022/01/20 12:43:44;;;;;;;5.70;0.87;;;5.20;99.90;;;;;;5008549;28;20049;-68
2022/01/20 12:46:13;;;;;;;8.38;2.03;;;5.10;99.90;;;;;;5012896;28;20116;-68
2022/01/20 12:48:53;;;;;;;7.23;1.97;;;5.30;99.90;;;;;;5006820;28;20160;-68
2022/01/20 12:51:28;;;;;;;12.23;1.43;;;6.10;99.90;;;;;;5026008;28;20474;-68
2022/01/20 12:53:58;;;;;;;10.90;1.80;;;5.40;99.90;;;;;;5024574;28;20044;-68
2022/01/20 12:56:31;;;;;;;7.83;1.27;;;5.20;99.90;;;;;;5020501;28;20053;-68
2022/01/20 12:58:57;;;;;;;8.55;0.98;;;5.40;99.90;;;;;;5012445;28;20022;-68
2022/01/20 13:01:23;;;;;;;10.07;2.10;;;;;;;;;;5007275;28;20026;-68
2022/01/20 13:03:49;;;;;;;16.13;3.87;;;;;;;;;;5007689;28;20033;-68
2022/01/20 13:06:23;;;;;;;12.47;1.77;;;5.50;99.90;;;;;;5008328;28;20026;-68
2022/01/20 13:09:09;;;;;;;14.40;1.73;;;5.60;99.90;;;;;;5007628;28;20081;-68
2022/01/20 13:11:42;;;;;;;7.47;1.13;;;5.30;99.90;;;;;;5012925;28;20509;-68
2022/01/20 13:14:09;;;;;;;9.90;1.50;;;5.60;99.90;;;;;;5007705;28;20095;-68
2022/01/20 13:16:36;;;;;;;10.47;1.60;;;5.40;99.90;;;;;;5007442;28;20118;-68
2022/01/20 13:19:05;;;;;;;15.77;2.87;;;5.30;99.90;;;;;;5007872;28;20049;-68
2022/01/20 13:21:40;;;;;;;12.53;1.83;;;5.20;99.90;;;;;;5007445;28;20029;-68
2022/01/20 13:24:08;;;;;;;8.17;1.37;;;5.10;99.90;;;;;;5007767;28;20040;-68
2022/01/20 13:26:48;;;;;;;10.87;1.60;;;5.20;99.90;;;;;;5012179;28;20026;-68
2022/01/20 13:29:14;;;;;;;11.83;1.80;;;5.10;99.90;;;;;;5007900;28;20794;-68
2022/01/20 13:31:40;;;;;;;7.57;1.87;;;;;;;;;;4989544;28;20026;-68
2022/01/20 13:34:14;;;;;;;13.57;1.87;;;5.50;99.90;;;;;;5007579;28;20034;-67
2022/01/20 13:36:47;;;;;;;10.23;3.30;;;5.40;99.90;;;;;;5023935;28;20159;-68
2022/01/20 13:39:32;;;;;;;7.05;2.45;;;6.20;99.90;;;;;;5025921;28;20124;-68
2022/01/20 13:42:32;;;;;;;14.05;2.35;;;5.60;99.90;;;;;;5011267;28;20029;-68
2022/01/20 13:45:03;;;;;;;12.00;1.57;;;5.60;99.90;;;;;;5017778;28;20030;-68
2022/01/20 13:47:29;;;;;;;10.73;1.30;;;;;;;;;;5024544;28;20022;-67
2022/01/20 13:49:55;;;;;;;6.70;1.27;;;5.70;99.90;;;;;;5026347;28;20501;-68
2022/01/20 13:52:21;;;;;;;15.57;1.93;;;5.60;99.90;;;;;;5007833;28;20479;-69
2022/01/20 13:54:50;;;;;;;8.57;1.47;;;5.80;99.90;;;;;;5008256;28;20485;-68
2022/01/20 13:57:16;;;;;;;13.47;1.77;;;5.60;99.90;;;;;;5013485;28;20022;-69
2022/01/20 14:00:12;;;;;;;8.57;1.93;;;5.40;99.90;;;;;;5010620;28;20087;-68
2022/01/20 14:02:38;;;;;;;13.93;2.53;;;5.60;99.90;;;;;;5025150;28;20033;-68
2022/01/20 14:05:04;;;;;;;14.73;1.83;;;5.60;99.90;;;;;;5028833;28;20378;-68
2022/01/20 14:07:30;;;;;;;15.17;2.30;;;5.30;99.90;;;;;;5015275;28;20034;-68
2022/01/20 14:09:55;;;;;;;12.53;1.80;;;5.40;99.90;;;;;;5014842;28;20085;-68
2022/01/20 14:12:21;;;;;;;11.27;1.87;;;;;;;;;;5010659;28;20467;-68
2022/01/20 14:14:47;;;;;;;10.10;1.80;;;5.30;99.90;;;;;;5014465;28;20036;-68
2022/01/20 14:17:21;;;;;;;10.30;1.57;;;5.00;99.90;;;;;;5010878;28;20026;-68
2022/01/20 14:19:54;;;;;;;10.10;1.23;;;;;;;;;;5017266;28;20411;-67
2022/01/20 14:22:20;;;;;;;10.43;1.17;;;;;;;;;;5013204;28;20033;-68